createdAt,value
2023-05-08T00:00:05.149Z,2.55
2023-05-08T00:02:34.062Z,2.70
2023-05-08T00:05:02.342Z,3.33
2023-05-08T00:07:30.725Z,2.60
2023-05-08T00:09:59.001Z,2.70
2023-05-08T00:12:27.236Z,2.70
2023-05-08T00:14:55.626Z,2.90
2023-05-08T00:17:24.050Z,3.33
2023-05-08T00:19:53.108Z,2.50
2023-05-08T00:22:21.639Z,2.95
2023-05-08T00:24:49.981Z,2.67
2023-05-08T00:27:27.267Z,2.92
2023-05-08T00:29:55.699Z,2.45
2023-05-08T00:32:24.575Z,2.45
2023-05-08T00:34:54.071Z,2.10
2023-05-08T00:37:22.528Z,2.70
2023-05-08T00:39:50.819Z,2.78
2023-05-08T00:42:19.089Z,1.70
2023-05-08T00:44:48.024Z,1.83
2023-05-08T00:47:16.650Z,1.98
2023-05-08T00:49:45.633Z,1.98
2023-05-08T00:52:13.989Z,1.98
2023-05-08T00:54:42.448Z,2.33
2023-05-08T00:57:12.060Z,3.13
2023-05-08T00:59:41.852Z,2.47
2023-05-08T01:02:10.552Z,2.30
2023-05-08T01:04:39.402Z,2.05
2023-05-08T01:07:08.075Z,2.33
2023-05-08T01:09:36.317Z,2.35
2023-05-08T01:12:25.788Z,2.70
2023-05-08T01:15:18.603Z,2.25
2023-05-08T01:18:06.749Z,2.13
2023-05-08T01:21:10.446Z,1.30
2023-05-08T01:24:00.381Z,1.60
2023-05-08T01:26:56.372Z,1.38
2023-05-08T01:29:34.048Z,1.25
2023-05-08T01:32:23.832Z,1.23
2023-05-08T01:35:01.334Z,1.55
2023-05-08T01:38:16.448Z,1.02
2023-05-08T01:40:52.202Z,1.27
2023-05-08T01:43:30.043Z,1.45
2023-05-08T01:46:02.383Z,1.60
2023-05-08T01:48:36.244Z,1.38
2023-05-08T01:51:17.158Z,1.40
2023-05-08T01:53:55.520Z,1.33
2023-05-08T01:56:27.120Z,2.17
2023-05-08T01:58:58.202Z,1.17
2023-05-08T02:01:29.431Z,1.30
2023-05-08T02:04:00.228Z,1.23
2023-05-08T02:06:31.256Z,1.52
2023-05-08T02:09:01.220Z,1.35
2023-05-08T02:11:32.444Z,1.30
2023-05-08T02:14:02.685Z,1.63
2023-05-08T02:16:32.839Z,1.70
2023-05-08T02:19:03.182Z,1.10
2023-05-08T02:21:32.618Z,2.25
2023-05-08T02:24:03.386Z,2.40
2023-05-08T02:26:33.784Z,2.80
2023-05-08T02:29:04.053Z,2.33
2023-05-08T02:31:32.789Z,2.45
2023-05-08T02:34:02.715Z,1.83
2023-05-08T02:36:32.122Z,2.38
2023-05-08T02:39:02.954Z,2.38
2023-05-08T02:41:33.867Z,2.55
2023-05-08T02:44:02.872Z,2.22
2023-05-08T02:46:46.376Z,2.03
2023-05-08T02:49:26.960Z,2.20
2023-05-08T02:52:32.981Z,2.33
2023-05-08T02:55:15.084Z,2.38
2023-05-08T02:58:01.884Z,2.75
2023-05-08T03:00:33.409Z,2.75
2023-05-08T03:03:33.063Z,2.65
2023-05-08T03:06:02.886Z,2.65
2023-05-08T03:08:34.266Z,2.28
2023-05-08T03:11:21.759Z,2.30
2023-05-08T03:13:51.542Z,2.15
2023-05-08T03:16:24.457Z,2.20
2023-05-08T03:19:01.383Z,2.75
2023-05-08T03:21:32.366Z,2.35
2023-05-08T03:24:03.998Z,1.70
2023-05-08T03:26:33.254Z,1.88
2023-05-08T03:29:02.535Z,1.55
2023-05-08T03:31:35.403Z,1.80
2023-05-08T03:34:06.906Z,1.02
2023-05-08T03:36:35.614Z,1.40
2023-05-08T03:39:05.511Z,1.45
2023-05-08T03:41:34.088Z,1.13
2023-05-08T03:44:03.801Z,1.13
2023-05-08T03:46:33.165Z,1.25
2023-05-08T03:49:08.901Z,1.45
2023-05-08T03:51:40.650Z,1.15
2023-05-08T03:54:09.535Z,1.45
2023-05-08T03:56:37.922Z,1.70
2023-05-08T03:59:14.451Z,1.52
2023-05-08T04:02:14.051Z,1.60
2023-05-08T04:04:45.379Z,2.22
2023-05-08T04:07:24.161Z,1.73
2023-05-08T04:10:19.895Z,1.50
2023-05-08T04:13:11.199Z,1.95
2023-05-08T04:15:53.057Z,1.40
2023-05-08T04:18:30.719Z,2.85
2023-05-08T04:21:03.415Z,1.75
2023-05-08T04:23:33.980Z,1.50
2023-05-08T04:26:05.549Z,1.73
2023-05-08T04:28:35.048Z,2.15
2023-05-08T04:31:05.167Z,2.03
2023-05-08T04:33:35.587Z,2.28
2023-05-08T04:36:04.660Z,2.08
2023-05-08T04:38:37.914Z,1.80
2023-05-08T04:41:08.225Z,2.30
2023-05-08T04:43:37.178Z,2.30
2023-05-08T04:46:07.027Z,2.63
2023-05-08T04:48:35.362Z,3.30
2023-05-08T04:51:03.760Z,3.50
2023-05-08T04:53:32.436Z,4.82
2023-05-08T04:56:00.852Z,3.70
2023-05-08T04:58:29.285Z,4.78
2023-05-08T05:01:03.569Z,5.22
2023-05-08T05:03:32.750Z,3.85
2023-05-08T05:06:02.369Z,4.38
2023-05-08T05:08:30.637Z,3.30
2023-05-08T05:11:00.134Z,3.80
2023-05-08T05:13:29.356Z,3.83
2023-05-08T05:16:00.242Z,4.28
2023-05-08T05:18:29.030Z,4.95
2023-05-08T05:20:59.437Z,4.80
2023-05-08T05:23:30.060Z,6.68
2023-05-08T05:25:58.344Z,5.72
2023-05-08T05:28:27.050Z,5.60
2023-05-08T05:30:55.542Z,6.05
2023-05-08T05:33:24.401Z,6.22
2023-05-08T05:35:52.777Z,6.47
2023-05-08T05:38:21.117Z,6.72
2023-05-08T05:40:49.557Z,5.18
2023-05-08T05:43:17.957Z,4.05
2023-05-08T05:45:46.775Z,4.20
2023-05-08T05:48:15.684Z,3.92
2023-05-08T05:50:44.257Z,3.88
2023-05-08T05:53:13.156Z,4.30
2023-05-08T05:55:41.901Z,4.30
2023-05-08T05:58:10.387Z,4.85
2023-05-08T06:00:38.663Z,5.25
2023-05-08T06:03:07.052Z,5.28
2023-05-08T06:05:35.463Z,5.30
2023-05-08T06:08:03.911Z,6.00
2023-05-08T06:10:32.278Z,5.40
2023-05-08T06:13:00.684Z,5.78
2023-05-08T06:15:29.537Z,5.70
2023-05-08T06:17:58.263Z,5.22
2023-05-08T06:20:26.794Z,5.20
2023-05-08T06:22:55.091Z,4.82
2023-05-08T06:25:23.524Z,4.85
2023-05-08T06:27:51.976Z,5.25
2023-05-08T06:30:20.375Z,5.75
2023-05-08T06:32:48.718Z,4.75
2023-05-08T06:35:19.468Z,4.88
2023-05-08T06:37:47.797Z,5.22
2023-05-08T06:40:16.074Z,5.78
2023-05-08T06:42:44.409Z,4.65
2023-05-08T06:45:13.721Z,5.25
2023-05-08T06:47:42.127Z,5.60
2023-05-08T06:50:10.779Z,4.68
2023-05-08T06:52:39.062Z,5.50
2023-05-08T06:55:07.629Z,5.65
2023-05-08T06:57:36.186Z,5.00
2023-05-08T07:00:05.013Z,5.55
2023-05-08T07:02:34.879Z,4.90
2023-05-08T07:05:03.602Z,3.83
2023-05-08T07:07:32.889Z,4.10
2023-05-08T07:10:01.203Z,3.28
2023-05-08T07:12:29.590Z,3.20
2023-05-08T07:14:58.056Z,2.70
2023-05-08T07:17:26.924Z,3.20
2023-05-08T07:19:55.151Z,5.65
2023-05-08T07:22:23.472Z,5.57
2023-05-08T07:24:51.909Z,6.78
2023-05-08T07:27:20.330Z,7.07
2023-05-08T07:29:48.603Z,6.93
2023-05-08T07:32:17.419Z,7.72
2023-05-08T07:34:45.680Z,7.45
2023-05-08T07:37:14.165Z,8.95
2023-05-08T07:39:42.395Z,8.98
2023-05-08T07:42:10.622Z,10.75
2023-05-08T07:44:51.048Z,10.02
2023-05-08T07:47:23.185Z,11.43
2023-05-08T07:49:51.557Z,10.27
2023-05-08T07:52:20.025Z,10.45
2023-05-08T07:54:48.277Z,10.63
2023-05-08T07:57:16.601Z,9.55
2023-05-08T07:59:44.914Z,10.18
2023-05-08T08:02:13.242Z,9.65
2023-05-08T08:04:41.537Z,10.00
2023-05-08T08:07:09.798Z,8.10
2023-05-08T08:09:38.002Z,7.45
2023-05-08T08:12:06.425Z,7.93
2023-05-08T08:14:34.614Z,6.35
2023-05-08T08:17:02.920Z,6.22
2023-05-08T08:19:31.181Z,6.47
2023-05-08T08:21:59.535Z,6.50
2023-05-08T08:24:29.343Z,6.63
2023-05-08T08:26:58.108Z,7.15
2023-05-08T08:29:26.529Z,6.78
2023-05-08T08:31:54.758Z,6.55
2023-05-08T08:34:23.591Z,6.50
2023-05-08T08:36:52.167Z,6.28
2023-05-08T08:39:20.689Z,5.63
2023-05-08T08:41:48.936Z,5.53
2023-05-08T08:44:17.459Z,6.00
2023-05-08T08:46:53.945Z,6.70
2023-05-08T08:49:31.645Z,6.72
2023-05-08T08:52:07.134Z,6.40
2023-05-08T08:54:36.340Z,7.05
2023-05-08T08:57:09.657Z,7.00
2023-05-08T09:02:17.696Z,7.38
2023-05-08T09:04:49.518Z,8.40
2023-05-08T09:07:18.637Z,8.35
2023-05-08T09:09:48.795Z,8.20
2023-05-08T09:12:17.142Z,7.85
2023-05-08T09:14:45.382Z,8.57
2023-05-08T09:17:14.270Z,9.27
2023-05-08T09:19:43.409Z,10.30
2023-05-08T09:22:13.028Z,8.98
2023-05-08T09:25:01.000Z,9.40
2023-05-08T09:27:31.260Z,9.52
2023-05-08T09:30:05.921Z,9.35
2023-05-08T09:32:37.393Z,9.63
2023-05-08T09:35:07.324Z,9.20
2023-05-08T09:37:39.691Z,10.93
2023-05-08T09:40:16.133Z,10.25
2023-05-08T09:42:44.752Z,9.00
2023-05-08T09:45:26.109Z,10.50
2023-05-08T09:47:54.423Z,9.05
2023-05-08T09:50:22.824Z,10.95
2023-05-08T09:52:51.328Z,10.70
2023-05-08T09:55:20.565Z,10.95
2023-05-08T09:57:57.144Z,11.20
2023-05-08T10:00:30.060Z,11.50
2023-05-08T10:03:01.344Z,12.05
2023-05-08T10:05:36.361Z,11.90
2023-05-08T10:08:26.569Z,11.70
2023-05-08T10:10:54.942Z,10.45
2023-05-08T10:13:23.567Z,9.82
2023-05-08T10:15:56.569Z,10.88
2023-05-08T10:18:26.578Z,11.38
2023-05-08T10:20:55.912Z,10.85
2023-05-08T10:23:24.495Z,10.75
2023-05-08T10:26:02.148Z,11.25
2023-05-08T10:28:40.987Z,10.10
2023-05-08T10:31:13.429Z,9.52
2023-05-08T10:33:44.811Z,10.20
2023-05-08T10:36:14.935Z,9.77
2023-05-08T10:38:44.856Z,9.63
2023-05-08T10:41:13.634Z,8.10
2023-05-08T10:43:44.765Z,8.25
2023-05-08T10:46:46.004Z,9.55
2023-05-08T10:49:29.658Z,8.90
2023-05-08T10:52:21.106Z,7.68
2023-05-08T10:55:04.833Z,7.93
2023-05-08T10:57:33.047Z,8.63
2023-05-08T11:00:01.389Z,6.93
2023-05-08T11:02:31.741Z,7.07
2023-05-08T11:05:16.915Z,5.60
2023-05-08T11:07:58.773Z,5.97
2023-05-08T11:10:33.310Z,4.60
2023-05-08T11:13:02.869Z,4.70
2023-05-08T11:15:38.651Z,4.55
2023-05-08T11:18:11.648Z,3.63
2023-05-08T11:20:58.845Z,3.65
2023-05-08T11:23:28.839Z,3.30
2023-05-08T11:26:04.473Z,3.22
2023-05-08T11:28:34.280Z,3.35
2023-05-08T11:31:09.291Z,4.30
2023-05-08T11:33:38.233Z,4.10
2023-05-08T11:36:22.336Z,3.65
2023-05-08T11:39:17.910Z,3.30
2023-05-08T11:41:47.988Z,4.10
2023-05-08T11:44:23.875Z,4.35
2023-05-08T11:46:54.274Z,4.53
2023-05-08T11:49:28.441Z,3.53
2023-05-08T11:51:59.923Z,3.58
2023-05-08T11:54:31.639Z,4.10
2023-05-08T11:56:59.987Z,4.15
2023-05-08T11:59:28.179Z,4.80
2023-05-08T12:02:07.754Z,4.53
2023-05-08T12:04:45.604Z,3.15
2023-05-08T12:07:14.239Z,3.80
2023-05-08T12:09:42.634Z,4.07
2023-05-08T12:12:10.885Z,3.50
2023-05-08T12:14:39.302Z,3.75
2023-05-08T12:17:07.680Z,3.90
2023-05-08T12:19:36.121Z,3.60
2023-05-08T12:22:04.407Z,3.83
2023-05-08T12:24:32.930Z,4.35
2023-05-08T12:27:01.260Z,4.07
2023-05-08T12:29:29.501Z,4.75
2023-05-08T12:31:58.049Z,4.82
2023-05-08T12:34:26.515Z,5.03
2023-05-08T12:37:05.019Z,4.97
2023-05-08T12:39:37.697Z,5.93
2023-05-08T12:42:06.228Z,5.03
2023-05-08T12:44:34.522Z,4.30
2023-05-08T12:47:04.915Z,4.13
2023-05-08T12:49:33.586Z,4.35
2023-05-08T12:52:12.409Z,4.45
2023-05-08T12:54:46.615Z,4.57
2023-05-08T12:57:17.807Z,5.78
2023-05-08T12:59:46.847Z,5.47
2023-05-08T13:02:16.250Z,5.43
2023-05-08T13:04:45.369Z,5.78
2023-05-08T13:07:14.086Z,5.03
2023-05-08T13:10:01.165Z,5.82
2023-05-08T13:12:29.813Z,5.80
2023-05-08T13:14:58.067Z,6.25
2023-05-08T13:17:26.404Z,6.07
2023-05-08T13:19:54.655Z,5.60
2023-05-08T13:22:26.598Z,6.25
2023-05-08T13:24:54.880Z,6.30
2023-05-08T13:27:23.498Z,6.28
2023-05-08T13:29:51.856Z,6.05
2023-05-08T13:32:20.197Z,6.07
2023-05-08T13:34:51.407Z,6.60
2023-05-08T13:37:20.608Z,7.38
2023-05-08T13:39:48.904Z,6.35
2023-05-08T13:42:17.070Z,7.10
2023-05-08T13:44:45.493Z,7.55
2023-05-08T13:47:13.795Z,7.60
2023-05-08T13:49:42.076Z,8.43
2023-05-08T13:52:10.385Z,7.38
2023-05-08T13:54:38.589Z,7.53
2023-05-08T13:57:08.142Z,7.45
2023-05-08T13:59:36.521Z,7.00
2023-05-08T14:02:04.909Z,7.28
2023-05-08T14:04:33.423Z,6.47
2023-05-08T14:07:01.684Z,7.03
2023-05-08T14:09:31.175Z,8.52
2023-05-08T14:11:59.740Z,7.97
2023-05-08T14:14:27.962Z,6.75
2023-05-08T14:16:56.276Z,6.57
2023-05-08T14:19:25.715Z,7.03
2023-05-08T14:21:54.066Z,7.20
2023-05-08T14:24:22.496Z,6.70
2023-05-08T14:26:50.902Z,7.25
2023-05-08T14:29:19.160Z,6.88
2023-05-08T14:31:47.593Z,6.90
2023-05-08T14:34:15.828Z,7.28
2023-05-08T14:36:44.076Z,7.47
2023-05-08T14:39:12.316Z,7.88
2023-05-08T14:41:40.844Z,7.65
2023-05-08T14:44:09.104Z,7.70
2023-05-08T14:46:37.519Z,7.25
2023-05-08T14:49:06.009Z,7.65
2023-05-08T14:51:34.213Z,6.93
2023-05-08T14:54:02.621Z,6.60
2023-05-08T14:56:40.457Z,6.00
2023-05-08T14:59:15.114Z,7.18
2023-05-08T15:01:43.543Z,6.55
2023-05-08T15:04:12.242Z,6.82
2023-05-08T15:06:41.465Z,7.38
2023-05-08T15:09:10.355Z,8.38
2023-05-08T15:11:38.782Z,6.88
2023-05-08T15:14:07.246Z,7.38
2023-05-08T15:16:35.599Z,6.90
2023-05-08T15:19:03.944Z,8.02
2023-05-08T15:21:32.269Z,7.32
2023-05-08T15:24:00.517Z,8.52
2023-05-08T15:26:28.727Z,7.63
2023-05-08T15:28:56.951Z,7.55
2023-05-08T15:31:25.197Z,7.55
2023-05-08T15:33:53.444Z,7.30
2023-05-08T15:36:21.754Z,7.15
2023-05-08T15:38:50.119Z,5.93
2023-05-08T15:41:18.483Z,5.72
2023-05-08T15:43:47.344Z,5.47
2023-05-08T15:46:15.712Z,4.75
2023-05-08T15:48:44.061Z,4.78
2023-05-08T15:51:12.360Z,4.25
2023-05-08T15:53:40.752Z,4.22
2023-05-08T15:56:08.953Z,4.55
2023-05-08T15:58:39.027Z,5.00
2023-05-08T16:01:07.706Z,5.25
2023-05-08T16:03:36.000Z,4.70
2023-05-08T16:06:06.762Z,4.68
2023-05-08T16:08:36.299Z,4.78
2023-05-08T16:11:04.743Z,5.47
2023-05-08T16:13:41.481Z,5.47
2023-05-08T16:16:12.190Z,4.45
2023-05-08T16:18:40.470Z,4.65
2023-05-08T16:21:13.228Z,4.80
2023-05-08T16:23:44.282Z,5.13
2023-05-08T16:26:14.127Z,5.43
2023-05-08T16:28:44.736Z,4.22
2023-05-08T16:31:13.240Z,4.28
2023-05-08T16:33:44.636Z,4.60
2023-05-08T16:36:13.497Z,4.80
2023-05-08T16:38:41.830Z,4.15
2023-05-08T16:41:11.656Z,4.32
2023-05-08T16:43:40.105Z,4.70
2023-05-08T16:46:10.843Z,5.35
2023-05-08T16:48:39.562Z,4.63
2023-05-08T16:51:08.443Z,4.45
2023-05-08T16:53:37.389Z,5.20
2023-05-08T16:56:06.132Z,5.57
2023-05-08T16:58:35.284Z,5.70
2023-05-08T17:01:06.611Z,5.45
2023-05-08T17:03:37.230Z,5.15
2023-05-08T17:06:09.494Z,5.20
2023-05-08T17:08:37.795Z,5.63
2023-05-08T17:11:06.087Z,5.30
2023-05-08T17:13:34.409Z,4.93
2023-05-08T17:16:02.995Z,5.47
2023-05-08T17:18:31.278Z,4.70
2023-05-08T17:20:59.570Z,4.78
2023-05-08T17:23:28.096Z,5.05
2023-05-08T17:25:57.693Z,5.03
2023-05-08T17:28:26.168Z,4.45
2023-05-08T17:30:54.563Z,5.32
2023-05-08T17:33:22.948Z,5.30
2023-05-08T17:35:51.122Z,4.70
2023-05-08T17:38:19.399Z,5.45
2023-05-08T17:40:47.874Z,5.10
2023-05-08T17:43:17.385Z,5.15
2023-05-08T17:45:47.512Z,5.88
2023-05-08T17:48:16.000Z,5.32
2023-05-08T17:50:45.827Z,5.53
2023-05-08T17:53:14.217Z,5.38
2023-05-08T17:55:42.435Z,5.25
2023-05-08T17:58:10.657Z,5.95
2023-05-08T18:00:39.274Z,5.22
2023-05-08T18:03:07.571Z,6.30
2023-05-08T18:05:37.630Z,5.25
2023-05-08T18:08:06.116Z,5.75
2023-05-08T18:10:39.252Z,5.65
2023-05-08T18:13:07.859Z,5.55
2023-05-08T18:15:38.981Z,5.25
2023-05-08T18:18:07.460Z,5.78
2023-05-08T18:20:35.717Z,5.72
2023-05-08T18:23:04.070Z,5.63
2023-05-08T18:25:32.486Z,5.65
2023-05-08T18:28:00.715Z,5.10
2023-05-08T18:30:28.984Z,5.43
2023-05-08T18:32:57.625Z,5.70
2023-05-08T18:35:25.892Z,5.72
2023-05-08T18:37:54.136Z,6.38
2023-05-08T18:40:22.416Z,5.85
2023-05-08T18:42:50.807Z,5.72
2023-05-08T18:45:19.291Z,6.63
2023-05-08T18:47:48.024Z,5.90
2023-05-08T18:50:16.621Z,5.45
2023-05-08T18:52:45.051Z,5.15
2023-05-08T18:55:13.348Z,6.32
2023-05-08T18:57:41.616Z,5.93
2023-05-08T19:00:10.815Z,4.82
2023-05-08T19:02:39.088Z,5.55
2023-05-08T19:05:07.810Z,6.10
2023-05-08T19:07:36.529Z,5.95
2023-05-08T19:10:06.722Z,5.97
2023-05-08T19:12:34.967Z,6.22
2023-05-08T19:15:03.379Z,5.50
2023-05-08T19:17:31.663Z,6.00
2023-05-08T19:19:59.925Z,5.53
2023-05-08T19:22:28.138Z,6.13
2023-05-08T19:24:56.372Z,5.85
2023-05-08T19:27:25.735Z,5.45
2023-05-08T19:29:54.042Z,5.47
2023-05-08T19:32:22.325Z,5.53
2023-05-08T19:34:50.838Z,5.43
2023-05-08T19:37:19.232Z,5.07
2023-05-08T19:39:47.515Z,5.10
2023-05-08T19:42:16.029Z,4.57
2023-05-08T19:44:44.292Z,4.93
2023-05-08T19:47:13.036Z,5.20
2023-05-08T19:49:42.152Z,5.75
2023-05-08T19:52:10.641Z,5.18
2023-05-08T19:54:38.862Z,5.53
2023-05-08T19:57:08.404Z,4.90
2023-05-08T19:59:39.235Z,5.30
2023-05-08T20:02:07.926Z,5.40
2023-05-08T20:04:48.728Z,4.88
2023-05-08T20:07:25.494Z,4.60
2023-05-08T20:09:54.088Z,4.93
2023-05-08T20:12:22.406Z,4.90
2023-05-08T20:14:50.895Z,5.07
2023-05-08T20:17:19.595Z,6.18
2023-05-08T20:19:48.846Z,4.65
2023-05-08T20:22:17.375Z,5.40
2023-05-08T20:24:45.718Z,5.53
2023-05-08T20:27:15.246Z,4.88
2023-05-08T20:29:45.165Z,5.18
2023-05-08T20:32:15.000Z,5.25
2023-05-08T20:34:44.591Z,5.20
2023-05-08T20:37:13.040Z,5.25
2023-05-08T20:39:41.561Z,5.40
2023-05-08T20:42:09.832Z,4.47
2023-05-08T20:44:38.033Z,4.90
2023-05-08T20:47:06.286Z,5.07
2023-05-08T20:49:34.469Z,5.35
2023-05-08T20:52:02.997Z,4.93
2023-05-08T20:54:31.627Z,5.10
2023-05-08T20:57:01.354Z,5.90
2023-05-08T20:59:29.530Z,5.15
2023-05-08T21:01:57.802Z,4.82
2023-05-08T21:04:26.247Z,5.93
2023-05-08T21:06:54.557Z,4.93
2023-05-08T21:09:22.708Z,4.65
2023-05-08T21:11:50.945Z,5.13
2023-05-08T21:14:19.260Z,5.10
2023-05-08T21:16:47.558Z,4.88
2023-05-08T21:19:19.456Z,5.70
2023-05-08T21:21:48.120Z,5.57
2023-05-08T21:24:16.397Z,5.55
2023-05-08T21:26:44.640Z,5.32
2023-05-08T21:29:12.918Z,5.13
2023-05-08T21:31:44.210Z,5.78
2023-05-08T21:34:13.496Z,5.75
2023-05-08T21:36:41.869Z,5.20
2023-05-08T21:39:10.102Z,6.30
2023-05-08T21:41:38.436Z,5.90
2023-05-08T21:44:06.674Z,5.63
2023-05-08T21:46:35.034Z,5.93
2023-05-08T21:49:03.741Z,6.50
2023-05-08T21:51:32.654Z,6.70
2023-05-08T21:54:01.460Z,5.22
2023-05-08T21:56:29.718Z,5.93
2023-05-08T21:58:57.924Z,6.15
2023-05-08T22:01:26.283Z,6.25
2023-05-08T22:03:54.768Z,5.57
2023-05-08T22:06:23.396Z,5.90
2023-05-08T22:08:51.651Z,6.63
2023-05-08T22:11:19.931Z,6.38
2023-05-08T22:13:48.185Z,5.30
2023-05-08T22:16:16.459Z,5.90
2023-05-08T22:18:44.751Z,5.72
2023-05-08T22:21:13.045Z,5.85
2023-05-08T22:23:41.225Z,5.93
2023-05-08T22:26:09.507Z,5.88
2023-05-08T22:28:37.786Z,5.10
2023-05-08T22:31:07.507Z,4.75
2023-05-08T22:33:35.830Z,5.57
2023-05-08T22:36:04.378Z,5.13
2023-05-08T22:38:32.676Z,5.15
2023-05-08T22:41:01.209Z,4.75
2023-05-08T22:43:29.611Z,4.32
2023-05-08T22:45:58.333Z,4.65
2023-05-08T22:48:26.806Z,4.55
2023-05-08T22:50:55.144Z,4.60
2023-05-08T22:53:23.374Z,4.70
2023-05-08T22:55:51.650Z,4.25
2023-05-08T22:58:19.918Z,4.30
2023-05-08T23:00:48.312Z,4.05
2023-05-08T23:03:16.669Z,3.67
2023-05-08T23:05:45.013Z,3.95
2023-05-08T23:08:13.213Z,3.72
2023-05-08T23:10:41.539Z,3.90
2023-05-08T23:13:09.922Z,4.22
2023-05-08T23:15:38.128Z,3.25
2023-05-08T23:18:06.610Z,4.10
2023-05-08T23:20:34.939Z,4.18
2023-05-08T23:23:03.206Z,4.78
2023-05-08T23:25:31.726Z,5.10
2023-05-08T23:27:59.901Z,5.68
2023-05-08T23:30:28.204Z,5.97
2023-05-08T23:32:56.623Z,5.43
2023-05-08T23:35:24.997Z,5.95
2023-05-08T23:37:53.314Z,6.30
2023-05-08T23:40:21.675Z,5.95
2023-05-08T23:42:52.097Z,5.85
2023-05-08T23:45:20.588Z,5.53
2023-05-08T23:47:49.519Z,6.35
2023-05-08T23:50:17.880Z,6.65
2023-05-08T23:52:46.302Z,7.15
2023-05-08T23:55:15.041Z,6.30
2023-05-08T23:57:43.516Z,7.90
